Time;durP1;ratioP1;P1;durP2;ratioP2;P2;SDS_P1;SDS_P2;PMS_P1;PMS_P2;Temp;Humidity;BMP_temperature;BMP_pressure;BME280_temperature;BME280_humidity;BME280_pressure;Samples;Min_cycle;Max_cycle;Signal;HPM_P1;HPM_P2
2022/08/01 00:08:46;;;;;;;5.80;1.90;;;;;;;18.58;63.87;100289.81;18696615;31;20117;-55
2022/08/01 00:18:52;;;;;;;3.17;1.70;;;;;;;18.63;64.30;100293.16;18696149;31;20149;-55
2022/08/01 00:28:55;;;;;;;3.05;1.60;;;;;;;18.62;63.48;100280.87;18630574;31;20105;-55
2022/08/01 00:39:00;;;;;;;3.47;1.70;;;;;;;18.28;64.54;100272.41;18695843;31;20399;-55
2022/08/01 00:49:03;;;;;;;2.85;1.85;;;;;;;18.07;65.26;100274.06;18695408;31;20096;-55
2022/08/01 00:59:15;;;;;;;5.57;1.90;;;;;;;17.91;65.44;100268.41;18695311;31;20105;-55
2022/08/01 01:09:31;;;;;;;3.70;2.10;;;;;;;17.88;66.62;100269.38;18695882;31;20118;-55
2022/08/01 01:19:40;;;;;;;2.62;1.75;;;;;;;18.11;66.20;100264.25;18694718;31;20134;-55
2022/08/01 01:29:48;;;;;;;4.25;2.20;;;;;;;18.41;64.82;100266.69;18695500;31;20076;-55
2022/08/01 01:40:05;;;;;;;5.47;2.17;;;;;;;18.49;63.91;100269.91;18693974;31;20465;-55
2022/08/01 01:50:12;;;;;;;3.92;1.90;;;;;;;18.85;63.24;100269.41;18693835;31;20114;-55
2022/08/01 02:00:16;;;;;;;4.10;2.08;;;;;;;18.98;61.43;100251.28;18693706;31;20374;-55
2022/08/01 02:10:21;;;;;;;4.10;2.20;;;;;;;19.16;61.04;100243.56;18692978;31;20139;-55
2022/08/01 02:20:31;;;;;;;3.23;1.90;;;;;;;19.13;61.54;100249.84;18692833;31;20605;-55
2022/08/01 02:30:38;;;;;;;3.40;2.20;;;;;;;19.47;59.38;100247.59;18691463;31;20109;-55
2022/08/01 02:40:43;;;;;;;5.22;2.10;;;;;;;19.33;60.59;100244.63;18691814;31;20095;-55
2022/08/01 02:50:50;;;;;;;3.55;1.90;;;;;;;19.19;61.62;100246.09;18691105;31;20099;-55
2022/08/01 03:00:53;;;;;;;4.15;2.17;;;;;;;18.83;62.89;100241.31;18690670;31;20087;-54
2022/08/01 03:11:01;;;;;;;4.12;2.17;;;;;;;18.38;64.12;100235.09;18689867;31;20107;-54
2022/08/01 03:21:05;;;;;;;3.97;2.30;;;;;;;18.17;64.44;100248.19;18689246;31;20427;-54
2022/08/01 03:31:10;;;;;;;5.95;2.37;;;;;;;17.98;64.95;100234.72;18688781;31;20096;-54
2022/08/01 03:41:17;;;;;;;3.70;2.15;;;;;;;17.74;65.51;100246.09;18695174;31;20084;-54
2022/08/01 03:51:22;;;;;;;4.62;2.10;;;;;;;17.45;66.90;100240.03;18697326;31;20105;-54
2022/08/01 04:01:25;;;;;;;3.62;1.95;;;;;;;17.53;66.49;100237.13;18697032;31;20087;-54
2022/08/01 04:11:30;;;;;;;3.67;2.00;;;;;;;17.92;65.78;100249.00;18696294;31;20091;-54
2022/08/01 04:21:35;;;;;;;4.53;1.95;;;;;;;18.63;64.42;100256.16;18696329;31;20153;-54
2022/08/01 04:31:44;;;;;;;3.87;2.30;;;;;;;19.51;62.03;100254.47;18695819;31;20443;-54
2022/08/01 04:41:48;;;;;;;4.68;2.22;;;;;;;19.76;61.42;100249.91;18695745;31;20524;-54
2022/08/01 04:51:57;;;;;;;4.97;2.10;;;;;;;20.09;62.44;100247.59;18695171;31;20666;-54
2022/08/01 05:02:00;;;;;;;6.20;2.67;;;;;;;20.36;61.83;100249.09;18696184;31;20095;-54
2022/08/01 05:12:06;;;;;;;4.47;2.08;;;;;;;20.73;61.64;100255.34;18695597;31;20091;-54
2022/08/01 05:22:11;;;;;;;4.60;2.30;;;;;;;21.15;61.40;100256.03;18695520;31;20399;-54
2022/08/01 05:32:15;;;;;;;4.43;2.28;;;;;;;21.49;60.38;100251.69;18673307;31;20092;-55
2022/08/01 05:42:18;;;;;;;3.87;1.87;;;;;;;22.06;56.91;100249.75;18693774;31;20099;-54
2022/08/01 05:52:23;;;;;;;4.10;2.00;;;;;;;22.51;55.41;100244.72;18692737;31;20130;-54
2022/08/01 06:02:27;;;;;;;3.30;2.03;;;;;;;22.89;53.54;100266.63;18572979;31;20084;-54
2022/08/01 06:12:33;;;;;;;4.00;1.90;;;;;;;22.90;52.88;100268.34;18593353;31;20096;-54
2022/08/01 06:22:37;;;;;;;2.92;1.80;;;;;;;23.28;51.33;100262.66;18626850;31;20088;-54
2022/08/01 06:32:43;;;;;;;4.53;1.95;;;;;;;24.06;50.85;100263.44;18627564;31;20143;-54
2022/08/01 06:42:47;;;;;;;3.70;1.80;;;;;;;24.95;47.21;100264.16;18625559;31;20105;-55
2022/08/01 06:52:51;;;;;;;5.70;1.77;;;;;;;25.70;47.17;100251.22;18625140;31;20487;-55
2022/08/01 07:02:56;;;;;;;2.30;1.52;;;;;;;26.33;45.75;100243.34;18621085;31;20110;-55
2022/08/01 07:13:01;;;;;;;2.92;1.70;;;;;;;27.04;40.43;100247.25;18625420;31;20092;-55
2022/08/01 07:23:04;;;;;;;2.25;1.37;;;;;;;27.46;38.89;100231.56;18630260;31;20084;-55
2022/08/01 07:33:11;;;;;;;3.12;1.52;;;;;;;28.13;36.54;100234.53;18631911;31;20160;-55
2022/08/01 07:43:14;;;;;;;5.30;1.62;;;;;;;28.96;33.61;100236.03;18630954;31;20092;-55
2022/08/01 07:53:19;;;;;;;2.65;1.10;;;;;;;29.43;31.48;100233.00;18630933;31;20140;-56
2022/08/01 08:03:22;;;;;;;1.95;1.35;;;;;;;29.33;30.32;100230.28;18630083;31;20352;-56
2022/08/01 08:13:27;;;;;;;3.37;1.48;;;;;;;29.75;31.48;100219.53;18630715;31;20119;-55
2022/08/01 08:33:52;;;;;;;2.28;1.33;;;;;;;30.77;29.30;100232.28;18615825;31;20096;-55
2022/08/01 08:43:57;;;;;;;2.75;1.52;;;;;;;30.91;27.94;100239.97;18628837;31;20118;-55
2022/08/01 08:54:04;;;;;;;3.03;1.70;;;;;;;30.14;30.19;100253.03;18629123;31;20096;-56
2022/08/01 09:04:07;;;;;;;2.87;1.60;;;;;;;29.62;30.80;100275.38;18629133;31;20095;-56
2022/08/01 09:14:14;;;;;;;2.60;1.50;;;;;;;28.91;33.46;100282.09;18628459;31;20123;-56
2022/08/01 09:24:19;;;;;;;3.53;1.70;;;;;;;28.57;33.56;100274.91;18628420;31;20088;-56
2022/08/01 09:34:34;;;;;;;3.30;1.95;;;;;;;28.37;34.10;100280.06;18628374;31;20147;-56
2022/08/01 09:44:39;;;;;;;2.62;1.77;;;;;;;28.66;34.96;100284.03;18627319;31;20085;-56
2022/08/01 09:54:54;;;;;;;3.03;1.60;;;;;;;28.79;34.81;100275.84;18627679;31;20103;-56
2022/08/01 10:04:57;;;;;;;3.15;1.55;;;;;;;28.90;32.74;100270.47;18613903;31;20096;-56
2022/08/01 10:15:13;;;;;;;3.87;1.75;;;;;;;29.27;32.32;100276.47;18627176;31;20084;-56
2022/08/01 10:25:18;;;;;;;4.47;1.83;;;;;;;29.06;32.05;100277.28;18626142;31;20110;-56
2022/08/01 10:35:42;;;;;;;3.12;2.00;;;;;;;29.38;33.81;100275.59;18626262;31;20096;-56
2022/08/01 10:45:50;;;;;;;3.33;1.65;;;;;;;29.87;30.84;100284.00;18625483;31;20180;-56
2022/08/01 10:56:03;;;;;;;2.80;1.62;;;;;;;29.98;31.09;100257.03;18610713;31;20337;-56
2022/08/01 11:06:07;;;;;;;5.12;1.77;;;;;;;30.11;30.02;100246.06;18616448;31;245543;-56
2022/08/01 11:26:39;;;;;;;3.08;1.80;;;;;;;30.51;30.51;100243.53;18607659;31;76889;-56
2022/08/01 11:36:43;;;;;;;3.08;2.12;;;;;;;30.41;30.80;100248.88;18546128;32;20131;-56
2022/08/01 11:47:07;;;;;;;2.53;1.85;;;;;;;30.97;30.69;100230.47;18544713;32;20457;-56
2022/08/01 11:57:13;;;;;;;4.10;1.98;;;;;;;31.20;29.10;100227.47;18543366;32;20116;-56
2022/08/01 12:07:19;;;;;;;3.95;1.75;;;;;;;32.49;27.59;100224.34;18544460;32;20140;-56
2022/08/01 12:17:32;;;;;;;2.70;2.00;;;;;;;32.47;28.23;100226.34;18544307;32;20084;-56
2022/08/01 12:27:41;;;;;;;4.65;2.03;;;;;;;32.04;30.33;100215.16;18542843;32;20115;-56
2022/08/01 12:37:46;;;;;;;3.95;2.35;;;;;;;32.23;30.82;100216.91;18492864;32;20132;-56
2022/08/01 12:47:52;;;;;;;5.32;1.90;;;;;;;32.14;30.59;100208.88;18499364;32;20416;-55
2022/08/01 12:58:05;;;;;;;3.20;2.00;;;;;;;32.14;29.34;100198.91;18496900;32;20097;-56
2022/08/01 13:08:12;;;;;;;3.53;1.83;;;;;;;32.60;28.11;100195.41;18499182;32;20096;-55
2022/08/01 13:18:26;;;;;;;3.78;2.00;;;;;;;33.68;27.19;100186.37;18498797;32;20072;-56
2022/08/01 13:28:31;;;;;;;2.40;1.60;;;;;;;32.94;26.30;100182.06;18499645;32;20089;-56
2022/08/01 13:48:57;;;;;;;3.15;1.33;;;;;;;32.21;28.10;100177.56;18497273;32;20093;-56
2022/08/01 13:59:13;;;;;;;2.78;1.42;;;;;;;31.78;27.57;100175.31;18497470;32;20359;-56
2022/08/01 14:09:19;;;;;;;2.62;1.77;;;;;;;31.21;29.05;100178.81;18497468;32;20093;-56
2022/08/01 14:19:26;;;;;;;3.12;2.17;;;;;;;31.14;30.45;100170.44;18495255;32;20472;-56
2022/08/01 14:29:43;;;;;;;2.62;1.55;;;;;;;31.54;31.01;100159.63;18496241;32;20701;-56
2022/08/01 14:40:10;;;;;;;3.33;1.60;;;;;;;31.20;31.25;100179.81;18496332;32;20479;-56
2022/08/01 14:50:16;;;;;;;2.45;1.37;;;;;;;31.08;29.83;100171.03;18494600;32;20183;-56
2022/08/01 15:00:19;;;;;;;3.95;1.73;;;;;;;30.94;30.85;100175.00;18495211;32;20084;-56
2022/08/01 15:10:24;;;;;;;2.53;1.85;;;;;;;31.47;29.69;100180.06;18493108;32;20456;-55
2022/08/01 15:20:27;;;;;;;2.60;1.50;;;;;;;31.63;29.88;100174.06;18490678;32;20113;-55
2022/08/01 15:30:55;;;;;;;2.50;1.70;;;;;;;31.88;29.35;100160.94;18494201;32;20162;-58
2022/08/01 15:41:00;;;;;;;3.10;1.73;;;;;;;31.42;29.56;100172.41;18491875;32;20089;-56
2022/08/01 15:51:03;;;;;;;2.35;1.58;;;;;;;30.75;31.78;100178.53;18488086;32;20119;-56
2022/08/01 16:01:08;;;;;;;3.25;1.55;;;;;;;30.85;31.39;100182.09;18492209;32;20092;-55
2022/08/01 16:11:14;;;;;;;2.33;1.62;;;;;;;30.75;31.99;100181.25;18498619;32;20111;-56
2022/08/01 16:21:19;;;;;;;3.33;1.75;;;;;;;31.12;30.41;100185.06;18499711;32;20119;-56
2022/08/01 16:31:22;;;;;;;3.67;1.70;;;;;;;31.05;31.26;100182.09;18498713;32;20112;-56
2022/08/01 16:41:47;;;;;;;2.33;1.70;;;;;;;30.96;31.55;100174.88;18501192;32;20876;-56
2022/08/01 16:51:51;;;;;;;3.10;1.70;;;;;;;30.74;32.41;100184.94;18498295;32;20096;-56
2022/08/01 17:01:55;;;;;;;3.58;1.58;;;;;;;30.82;32.04;100170.75;18491077;32;20116;-56
2022/08/01 17:12:09;;;;;;;4.50;1.95;;;;;;;30.58;32.83;100178.22;18437800;32;20089;-56
2022/08/01 17:22:14;;;;;;;3.40;2.00;;;;;;;30.57;32.69;100181.91;18432630;32;20089;-55
2022/08/01 17:32:17;;;;;;;5.30;1.85;;;;;;;30.22;34.46;100187.78;18473326;32;20104;-56
2022/08/01 17:42:23;;;;;;;3.60;2.12;;;;;;;30.02;34.57;100196.59;18497644;32;20097;-56
2022/08/01 17:52:26;;;;;;;3.45;1.80;;;;;;;29.38;36.35;100211.91;18492638;32;20088;-55
2022/08/01 18:02:33;;;;;;;3.47;1.92;;;;;;;29.08;36.62;100203.63;18487088;32;20432;-56
2022/08/01 18:12:36;;;;;;;3.47;2.20;;;;;;;28.90;37.92;100221.28;18496987;32;20596;-56
2022/08/01 18:22:46;;;;;;;3.35;1.92;;;;;;;28.21;41.49;100231.25;18496338;32;20464;-56
2022/08/01 18:32:49;;;;;;;3.67;2.28;;;;;;;27.68;42.08;100241.53;18490687;32;20076;-56
2022/08/01 18:42:54;;;;;;;4.30;2.40;;;;;;;27.28;42.47;100248.06;18492078;32;20100;-55
2022/08/01 18:52:57;;;;;;;4.25;2.35;;;;;;;26.85;46.83;100259.28;18492428;32;20085;-55
2022/08/01 19:03:03;;;;;;;3.70;2.20;;;;;;;26.56;47.84;100264.94;18486981;32;20069;-55
2022/08/01 19:13:07;;;;;;;5.18;2.70;;;;;;;26.16;48.96;100273.94;18495110;32;20426;-56
2022/08/01 19:33:33;;;;;;;4.60;2.72;;;;;;;25.25;51.16;100315.66;18430204;32;20483;-55
2022/08/01 19:43:37;;;;;;;6.35;2.80;;;;;;;25.12;51.52;100316.47;18431919;32;20093;-55
2022/08/01 19:53:50;;;;;;;5.30;2.60;;;;;;;24.45;53.58;100315.25;18435210;32;20084;-55
2022/08/01 20:03:58;;;;;;;;;;;;;;;24.59;53.68;100314.41;18491551;32;20100;-56
2022/08/01 20:14:05;;;;;;;5.87;2.58;;;;;;;23.62;55.28;100319.31;18499872;32;20025;-56
2022/08/01 20:24:11;;;;;;;5.97;3.45;;;;;;;24.35;54.26;100316.78;18499487;32;20088;-55
2022/08/01 20:34:17;;;;;;;5.37;2.95;;;;;;;23.92;55.28;100326.44;18497536;32;20097;-55
2022/08/01 20:44:22;;;;;;;5.50;2.78;;;;;;;24.01;54.50;100334.84;18498522;32;20121;-55
2022/08/01 20:54:28;;;;;;;5.65;3.33;;;;;;;24.06;55.12;100333.62;18498958;32;20416;-56
2022/08/01 21:04:52;;;;;;;6.03;3.10;;;;;;;23.59;55.83;100335.44;18496002;32;20115;-55
2022/08/01 21:14:58;;;;;;;5.90;3.30;;;;;;;23.54;56.55;100337.53;18494082;32;20084;-55
2022/08/01 21:25:06;;;;;;;5.22;2.97;;;;;;;23.51;56.96;100343.03;18495048;32;20170;-56
2022/08/01 21:35:09;;;;;;;6.40;3.33;;;;;;;23.61;56.46;100349.53;18489157;32;20165;-56
2022/08/01 21:45:23;;;;;;;6.53;3.30;;;;;;;23.48;57.20;100351.19;18494945;32;20076;-55
2022/08/01 21:55:29;;;;;;;5.93;3.10;;;;;;;23.32;57.98;100351.22;18496755;32;20144;-55
2022/08/01 22:05:40;;;;;;;8.85;4.72;;;;;;;23.23;58.25;100357.88;18496750;32;20148;-55
2022/08/01 22:15:54;;;;;;;5.53;2.70;;;;;;;23.22;58.39;100351.72;18497651;32;20103;-55
2022/08/01 22:25:59;;;;;;;7.65;3.65;;;;;;;22.94;59.15;100347.03;18497142;32;20127;-55
2022/08/01 22:36:03;;;;;;;6.35;3.35;;;;;;;22.63;60.30;100362.03;18496520;32;20097;-55
2022/08/01 22:46:25;;;;;;;6.65;3.33;;;;;;;22.42;61.34;100371.03;18497617;32;20128;-55
2022/08/01 22:56:29;;;;;;;7.07;3.80;;;;;;;22.51;60.77;100366.19;18496455;32;20119;-55
2022/08/01 23:06:38;;;;;;;5.15;3.17;;;;;;;22.63;60.38;100364.69;18495474;32;20105;-55
2022/08/01 23:16:43;;;;;;;6.60;3.40;;;;;;;22.49;60.77;100382.25;18495702;32;20132;-56
2022/08/01 23:26:48;;;;;;;6.95;3.10;;;;;;;22.21;61.66;100388.97;18494464;32;20103;-55
2022/08/01 23:36:51;;;;;;;8.15;3.17;;;;;;;22.20;61.13;100378.41;18493864;32;20092;-55
2022/08/01 23:46:56;;;;;;;6.70;3.40;;;;;;;22.12;61.16;100390.28;18493035;32;20084;-55
2022/08/01 23:56:59;;;;;;;6.45;3.10;;;;;;;22.06;61.75;100387.97;18492552;32;20111;-55
